createdAt,value
2019-06-01T00:02:21.643Z,2.40
2019-06-01T00:04:52.364Z,2.80
2019-06-01T00:07:22.447Z,2.90
2019-06-01T00:09:52.418Z,2.40
2019-06-01T00:12:22.431Z,2.90
2019-06-01T00:14:52.416Z,2.90
2019-06-01T00:17:22.495Z,2.60
2019-06-01T00:19:52.483Z,2.90
2019-06-01T00:22:22.563Z,2.90
2019-06-01T00:24:52.556Z,2.93
2019-06-01T00:27:22.642Z,2.87
2019-06-01T00:29:53.135Z,2.83
2019-06-01T00:32:23.258Z,2.80
2019-06-01T00:34:53.321Z,3.20
2019-06-01T00:37:23.383Z,2.60
2019-06-01T00:39:53.435Z,3.37
2019-06-01T00:42:23.522Z,2.40
2019-06-01T00:44:53.572Z,2.83
2019-06-01T00:47:23.655Z,3.20
2019-06-01T00:49:53.636Z,3.10
2019-06-01T00:52:23.650Z,2.37
2019-06-01T00:54:53.710Z,2.50
2019-06-01T00:57:23.720Z,3.00
2019-06-01T00:59:55.103Z,2.80
2019-06-01T01:02:25.490Z,2.50
2019-06-01T01:05:13.522Z,2.60
2019-06-01T01:07:44.548Z,3.30
2019-06-01T01:10:15.838Z,3.10
2019-06-01T01:13:05.826Z,2.73
2019-06-01T01:15:36.781Z,2.50
2019-06-01T01:18:08.087Z,3.10
2019-06-01T01:20:38.791Z,3.00
2019-06-01T01:23:09.387Z,3.00
2019-06-01T01:25:39.420Z,2.80
2019-06-01T01:28:09.393Z,2.40
2019-06-01T01:30:39.421Z,2.40
2019-06-01T01:33:09.433Z,2.60
2019-06-01T01:35:39.415Z,2.70
2019-06-01T01:38:09.357Z,2.40
2019-06-01T01:40:39.346Z,2.50
2019-06-01T01:43:09.424Z,2.53
2019-06-01T01:45:39.404Z,2.43
2019-06-01T01:48:09.425Z,2.60
2019-06-01T01:50:39.406Z,2.73
2019-06-01T01:53:09.417Z,2.70
2019-06-01T01:55:39.391Z,2.17
2019-06-01T01:58:09.409Z,2.80
2019-06-01T02:00:42.373Z,2.80
2019-06-01T02:03:12.458Z,3.23
2019-06-01T02:05:42.502Z,2.83
2019-06-01T02:08:12.604Z,2.20
2019-06-01T02:10:43.656Z,2.57
2019-06-01T02:13:13.671Z,2.80
2019-06-01T02:15:43.657Z,2.60
2019-06-01T02:18:13.749Z,2.60
2019-06-01T02:20:43.731Z,2.57
2019-06-01T02:23:13.757Z,3.30
2019-06-01T02:25:43.809Z,2.30
2019-06-01T02:28:13.823Z,2.50
2019-06-01T02:30:43.813Z,2.00
2019-06-01T02:33:13.781Z,2.30
2019-06-01T02:35:43.837Z,2.40
2019-06-01T02:38:13.828Z,2.70
2019-06-01T02:40:43.943Z,2.60
2019-06-01T02:43:14.523Z,2.60
2019-06-01T02:45:44.538Z,2.43
2019-06-01T02:48:14.517Z,2.63
2019-06-01T02:50:44.541Z,2.60
2019-06-01T02:53:14.510Z,2.33
2019-06-01T02:55:44.529Z,2.50
2019-06-01T02:58:14.513Z,2.50
2019-06-01T03:01:02.985Z,2.47
2019-06-01T03:03:33.225Z,2.30
2019-06-01T03:06:05.595Z,2.30
2019-06-01T03:08:37.452Z,2.40
2019-06-01T03:11:09.486Z,2.20
2019-06-01T03:13:42.305Z,2.20
2019-06-01T03:16:15.191Z,2.50
2019-06-01T03:18:46.397Z,2.40
2019-06-01T03:21:19.110Z,2.40
2019-06-01T03:23:50.123Z,2.70
2019-06-01T03:26:23.010Z,2.40
2019-06-01T03:28:54.705Z,2.12
2019-06-01T03:31:24.684Z,2.00
2019-06-01T03:33:54.696Z,2.20
2019-06-01T03:36:24.668Z,2.30
2019-06-01T03:38:54.691Z,2.53
2019-06-01T03:41:24.673Z,2.30
2019-06-01T03:43:55.816Z,2.70
2019-06-01T03:46:25.901Z,2.27
2019-06-01T03:48:55.975Z,2.30
2019-06-01T03:51:25.993Z,2.00
2019-06-01T03:53:55.983Z,2.43
2019-06-01T03:56:25.996Z,2.10
2019-06-01T03:58:55.983Z,2.17
2019-06-01T04:01:26.000Z,2.60
2019-06-01T04:03:56.054Z,1.90
2019-06-01T04:06:26.842Z,2.30
2019-06-01T04:08:56.857Z,2.20
2019-06-01T04:11:26.835Z,2.37
2019-06-01T04:13:56.869Z,2.10
2019-06-01T04:16:26.918Z,1.90
2019-06-01T04:18:56.938Z,2.13
2019-06-01T04:21:26.912Z,2.00
2019-06-01T04:23:56.924Z,2.00
2019-06-01T04:26:27.676Z,1.90
2019-06-01T04:28:57.758Z,1.90
2019-06-01T04:31:27.733Z,2.00
2019-06-01T04:33:57.746Z,2.00
2019-06-01T04:36:27.731Z,1.50
2019-06-01T04:38:57.804Z,1.50
2019-06-01T04:41:27.830Z,1.73
2019-06-01T04:43:58.180Z,1.80
2019-06-01T04:46:28.194Z,1.80
2019-06-01T04:48:58.175Z,1.63
2019-06-01T04:51:28.188Z,1.57
2019-06-01T04:53:58.169Z,1.30
2019-06-01T04:56:28.306Z,1.43
2019-06-01T04:58:58.320Z,1.47
2019-06-01T05:01:28.364Z,1.43
2019-06-01T05:03:58.385Z,1.20
2019-06-01T05:06:29.460Z,1.37
2019-06-01T05:08:59.438Z,1.57
2019-06-01T05:11:29.445Z,1.30
2019-06-01T05:13:59.450Z,1.30
2019-06-01T05:16:29.428Z,1.20
2019-06-01T05:18:59.439Z,1.37
2019-06-01T05:21:29.479Z,1.47
2019-06-01T05:23:59.494Z,1.23
2019-06-01T05:26:29.472Z,1.57
2019-06-01T05:29:00.664Z,1.30
2019-06-01T05:31:30.634Z,1.50
2019-06-01T05:34:00.643Z,1.40
2019-06-01T05:36:30.637Z,1.30
2019-06-01T05:39:00.648Z,1.40
2019-06-01T05:41:30.694Z,1.50
2019-06-01T05:44:00.779Z,1.30
2019-06-01T05:46:30.775Z,1.43
2019-06-01T05:49:00.747Z,1.30
2019-06-01T05:51:30.754Z,1.50
2019-06-01T05:54:00.811Z,1.60
2019-06-01T05:56:30.807Z,1.20
2019-06-01T05:59:00.856Z,2.40
2019-06-01T06:01:30.875Z,2.10
2019-06-01T06:04:00.857Z,1.70
2019-06-01T06:06:30.877Z,1.37
2019-06-01T06:09:00.865Z,1.13
2019-06-01T06:11:32.367Z,1.20
2019-06-01T06:14:02.421Z,3.20
2019-06-01T06:16:32.362Z,2.60
2019-06-01T06:19:02.351Z,2.07
2019-06-01T06:21:32.364Z,1.43
2019-06-01T06:24:02.508Z,1.47
2019-06-01T06:26:32.526Z,1.40
2019-06-01T06:29:02.589Z,1.30
2019-06-01T06:31:32.596Z,1.20
2019-06-01T06:34:02.572Z,1.63
2019-06-01T06:36:32.586Z,1.30
2019-06-01T06:39:04.685Z,1.30
2019-06-01T06:41:34.263Z,1.40
2019-06-01T06:44:04.346Z,1.20
2019-06-01T06:46:34.319Z,1.10
2019-06-01T06:49:04.328Z,1.20
2019-06-01T06:51:34.298Z,1.13
2019-06-01T06:54:04.306Z,1.10
2019-06-01T06:56:34.354Z,1.43
2019-06-01T06:59:04.400Z,1.57
2019-06-01T07:01:34.378Z,1.03
2019-06-01T07:04:12.829Z,1.00
2019-06-01T07:06:36.144Z,1.20
2019-06-01T07:09:07.083Z,1.10
2019-06-01T07:11:37.136Z,0.93
2019-06-01T07:14:07.127Z,1.00
2019-06-01T07:16:37.105Z,1.07
2019-06-01T07:19:07.113Z,1.10
2019-06-01T07:21:37.163Z,1.00
2019-06-01T07:24:07.193Z,1.20
2019-06-01T07:26:37.193Z,0.83
2019-06-01T07:29:07.188Z,1.00
2019-06-01T07:31:37.154Z,1.00
2019-06-01T07:34:07.162Z,0.90
2019-06-01T07:36:37.138Z,0.80
2019-06-01T07:39:08.319Z,1.10
2019-06-01T07:41:38.296Z,0.90
2019-06-01T07:44:08.303Z,0.80
2019-06-01T07:46:39.106Z,1.00
2019-06-01T07:49:09.117Z,0.90
2019-06-01T07:51:39.204Z,1.03
2019-06-01T07:54:09.257Z,1.10
2019-06-01T07:56:39.198Z,0.83
2019-06-01T07:59:09.171Z,1.10
2019-06-01T08:01:39.301Z,1.00
2019-06-01T08:04:09.235Z,1.10
2019-06-01T08:06:45.242Z,0.87
2019-06-01T08:09:10.996Z,1.00
2019-06-01T08:11:41.006Z,2.93
2019-06-01T08:14:11.071Z,5.97
2019-06-01T08:16:41.200Z,2.00
2019-06-01T08:19:11.182Z,0.93
2019-06-01T08:21:41.252Z,1.00
2019-06-01T08:24:11.332Z,1.00
2019-06-01T08:26:41.463Z,1.20
2019-06-01T08:29:11.443Z,0.90
2019-06-01T08:31:41.380Z,0.90
2019-06-01T08:34:11.467Z,1.00
2019-06-01T08:36:41.556Z,1.13
2019-06-01T08:39:11.536Z,0.80
2019-06-01T08:41:41.558Z,1.17
2019-06-01T08:44:11.625Z,1.00
2019-06-01T08:46:41.671Z,0.90
2019-06-01T08:49:11.682Z,0.70
2019-06-01T08:51:41.585Z,0.90
2019-06-01T08:54:11.596Z,0.83
2019-06-01T08:56:41.644Z,1.00
2019-06-01T08:59:11.658Z,1.00
2019-06-01T09:01:41.674Z,0.90
2019-06-01T09:04:11.654Z,0.83
2019-06-01T09:06:41.670Z,0.97
2019-06-01T09:09:12.084Z,0.97
2019-06-01T09:11:42.519Z,0.87
2019-06-01T09:14:12.503Z,0.90
2019-06-01T09:16:42.610Z,0.90
2019-06-01T09:19:12.586Z,0.90
2019-06-01T09:21:42.581Z,1.13
2019-06-01T09:24:12.557Z,1.10
2019-06-01T09:26:42.578Z,0.93
2019-06-01T09:29:12.485Z,1.00
2019-06-01T09:31:42.506Z,1.00
2019-06-01T09:34:12.491Z,0.80
2019-06-01T09:36:42.502Z,0.90
2019-06-01T09:39:12.483Z,1.10
2019-06-01T09:41:42.482Z,0.97
2019-06-01T09:44:12.501Z,1.00
2019-06-01T09:46:42.565Z,1.23
2019-06-01T09:49:12.550Z,0.93
2019-06-01T09:51:42.570Z,1.20
2019-06-01T09:54:12.550Z,1.30
2019-06-01T09:56:42.627Z,0.90
2019-06-01T09:59:12.607Z,1.10
2019-06-01T10:01:42.627Z,1.00
2019-06-01T10:04:12.611Z,1.10
2019-06-01T10:06:42.616Z,1.13
2019-06-01T10:09:12.594Z,0.90
2019-06-01T10:11:42.606Z,0.90
2019-06-01T10:14:12.593Z,1.00
2019-06-01T10:16:43.236Z,1.10
2019-06-01T10:19:13.456Z,1.07
2019-06-01T10:21:43.459Z,1.00
2019-06-01T10:24:13.437Z,0.97
2019-06-01T10:26:43.524Z,0.90
2019-06-01T10:29:13.491Z,1.03
2019-06-01T10:31:43.514Z,1.00
2019-06-01T10:34:13.559Z,0.97
2019-06-01T10:36:43.579Z,0.90
2019-06-01T10:39:13.628Z,0.90
2019-06-01T10:41:43.638Z,1.20
2019-06-01T10:44:13.547Z,1.00
2019-06-01T10:46:43.559Z,0.90
2019-06-01T10:49:13.539Z,1.00
2019-06-01T10:51:43.489Z,0.90
2019-06-01T10:54:13.467Z,1.00
2019-06-01T10:56:44.685Z,1.10
2019-06-01T10:59:14.698Z,0.80
2019-06-01T11:01:44.756Z,1.17
2019-06-01T11:04:14.735Z,0.97
2019-06-01T11:06:48.548Z,1.00
2019-06-01T11:09:16.359Z,1.00
2019-06-01T11:11:46.431Z,1.27
2019-06-01T11:14:16.481Z,1.00
2019-06-01T11:16:51.343Z,1.00
2019-06-01T11:19:18.117Z,1.13
2019-06-01T11:21:48.095Z,1.10
2019-06-01T11:24:18.103Z,1.20
2019-06-01T11:26:48.072Z,1.00
2019-06-01T11:29:18.055Z,1.00
2019-06-01T11:31:48.068Z,1.27
2019-06-01T11:34:18.054Z,1.00
2019-06-01T11:37:04.303Z,0.87
2019-06-01T11:39:19.736Z,0.90
2019-06-01T11:41:49.671Z,1.10
2019-06-01T11:44:19.655Z,0.90
2019-06-01T11:46:49.586Z,0.90
2019-06-01T11:49:21.241Z,1.50
2019-06-01T11:51:51.569Z,1.20
2019-06-01T11:54:21.887Z,1.00
2019-06-01T11:56:51.907Z,1.20
2019-06-01T11:59:21.803Z,1.20
2019-06-01T12:01:51.915Z,0.93
2019-06-01T12:04:21.879Z,0.90
2019-06-01T12:06:52.579Z,1.10
2019-06-01T12:09:22.548Z,1.00
2019-06-01T12:11:52.574Z,1.10
2019-06-01T12:14:22.546Z,1.37
2019-06-01T12:16:52.631Z,1.20
2019-06-01T12:19:22.610Z,1.40
2019-06-01T12:21:52.705Z,1.27
2019-06-01T12:24:25.639Z,1.20
2019-06-01T12:26:54.337Z,1.00
2019-06-01T12:29:24.381Z,1.20
2019-06-01T12:31:54.465Z,1.20
2019-06-01T12:34:24.437Z,1.50
2019-06-01T12:36:54.378Z,1.00
2019-06-01T12:39:24.437Z,1.20
2019-06-01T12:41:54.448Z,1.00
2019-06-01T12:44:24.423Z,1.30
2019-06-01T12:46:54.503Z,1.40
2019-06-01T12:49:24.544Z,1.17
2019-06-01T12:51:54.593Z,1.30
2019-06-01T12:54:24.455Z,1.20
2019-06-01T12:56:54.463Z,1.20
2019-06-01T12:59:24.444Z,1.23
2019-06-01T13:01:56.232Z,1.10
2019-06-01T13:04:26.208Z,1.20
2019-06-01T13:06:56.218Z,1.00
2019-06-01T13:09:26.198Z,1.13
2019-06-01T13:11:56.221Z,1.07
2019-06-01T13:14:26.309Z,1.00
2019-06-01T13:17:06.799Z,1.77
2019-06-01T13:19:27.997Z,1.00
2019-06-01T13:21:57.903Z,1.10
2019-06-01T13:24:27.979Z,1.00
2019-06-01T13:26:57.978Z,1.50
2019-06-01T13:29:27.930Z,1.30
2019-06-01T13:31:57.911Z,1.70
2019-06-01T13:34:27.923Z,1.30
2019-06-01T13:36:57.910Z,1.57
2019-06-01T13:39:27.926Z,1.20
2019-06-01T13:41:57.912Z,1.60
2019-06-01T13:44:27.923Z,1.30
2019-06-01T13:46:57.892Z,1.03
2019-06-01T13:49:27.961Z,1.30
2019-06-01T13:51:57.941Z,1.60
2019-06-01T13:54:27.951Z,1.37
2019-06-01T13:56:58.030Z,1.17
2019-06-01T13:59:28.111Z,2.20
2019-06-01T14:01:58.088Z,1.20
2019-06-01T14:04:28.178Z,1.40
2019-06-01T14:06:58.153Z,1.37
2019-06-01T14:09:28.164Z,1.50
2019-06-01T14:11:58.135Z,1.40
2019-06-01T14:14:28.147Z,1.50
2019-06-01T14:16:58.160Z,1.70
2019-06-01T14:19:28.138Z,1.30
2019-06-01T14:21:58.149Z,1.53
2019-06-01T14:24:28.131Z,1.53
2019-06-01T14:26:58.157Z,2.03
2019-06-01T14:29:28.074Z,1.40
2019-06-01T14:31:58.099Z,1.50
2019-06-01T14:34:28.078Z,1.50
2019-06-01T14:36:58.084Z,1.40
2019-06-01T14:39:28.062Z,1.33
2019-06-01T14:41:58.059Z,1.30
2019-06-01T14:44:28.111Z,1.00
2019-06-01T14:47:03.819Z,1.20
2019-06-01T14:49:29.731Z,1.80
2019-06-01T14:51:59.734Z,1.20
2019-06-01T14:54:29.677Z,1.30
2019-06-01T14:56:59.721Z,1.30
2019-06-01T14:59:29.765Z,1.20
2019-06-01T15:01:59.741Z,1.60
2019-06-01T15:04:29.759Z,1.80
2019-06-01T15:06:59.783Z,1.73
2019-06-01T15:09:29.767Z,1.63
2019-06-01T15:11:59.744Z,1.47
2019-06-01T15:14:29.750Z,1.80
2019-06-01T15:16:59.790Z,1.80
2019-06-01T15:19:30.971Z,1.40
2019-06-01T15:22:00.910Z,1.40
2019-06-01T15:24:30.895Z,1.67
2019-06-01T15:27:00.862Z,1.63
2019-06-01T15:29:30.839Z,2.00
2019-06-01T15:32:02.167Z,1.50
2019-06-01T15:34:32.599Z,1.30
2019-06-01T15:37:02.609Z,1.50
2019-06-01T15:39:32.589Z,1.60
2019-06-01T15:42:02.709Z,1.73
2019-06-01T15:44:32.705Z,1.70
2019-06-01T15:47:02.740Z,2.47
2019-06-01T15:49:32.726Z,1.80
2019-06-01T15:52:03.758Z,1.80
2019-06-01T15:54:33.740Z,2.10
2019-06-01T15:57:03.798Z,1.80
2019-06-01T15:59:33.763Z,1.47
2019-06-01T16:02:03.777Z,2.57
2019-06-01T16:04:33.759Z,2.17
2019-06-01T16:07:03.798Z,1.60
2019-06-01T16:09:42.625Z,2.10
2019-06-01T16:12:05.705Z,1.50
2019-06-01T16:14:35.780Z,2.43
2019-06-01T16:17:05.855Z,2.27
2019-06-01T16:19:35.946Z,2.00
2019-06-01T16:22:05.917Z,1.80
2019-06-01T16:24:35.993Z,1.80
2019-06-01T16:27:06.079Z,2.23
2019-06-01T16:29:36.088Z,2.20
2019-06-01T16:32:06.097Z,2.40
2019-06-01T16:34:36.100Z,4.37
2019-06-01T16:37:06.084Z,2.70
2019-06-01T16:39:36.168Z,2.00
2019-06-01T16:42:06.322Z,2.07
2019-06-01T16:44:36.443Z,1.80
2019-06-01T16:47:06.427Z,2.10
2019-06-01T16:49:36.437Z,2.20
2019-06-01T16:52:07.179Z,1.90
2019-06-01T16:54:37.440Z,2.30
2019-06-01T16:57:07.490Z,2.27
2019-06-01T16:59:38.580Z,3.90
2019-06-01T17:02:09.252Z,2.80
2019-06-01T17:04:39.263Z,3.10
2019-06-01T17:07:09.280Z,2.47
2019-06-01T17:09:39.364Z,2.67
2019-06-01T17:12:09.390Z,1.77
2019-06-01T17:14:39.511Z,1.87
2019-06-01T17:17:09.595Z,1.67
2019-06-01T17:19:39.611Z,2.83
2019-06-01T17:22:09.655Z,2.00
2019-06-01T17:24:39.741Z,2.13
2019-06-01T17:27:09.713Z,1.90
2019-06-01T17:29:39.731Z,2.60
2019-06-01T17:32:23.027Z,1.93
2019-06-01T17:34:41.492Z,1.87
2019-06-01T17:37:11.474Z,2.60
2019-06-01T17:39:41.785Z,1.83
2019-06-01T17:42:12.724Z,1.40
2019-06-01T17:44:43.222Z,1.70
2019-06-01T17:47:13.189Z,1.70
2019-06-01T17:49:43.285Z,1.53
2019-06-01T17:52:13.249Z,1.60
2019-06-01T17:54:44.428Z,1.70
2019-06-01T17:57:14.436Z,1.73
2019-06-01T17:59:44.648Z,1.30
2019-06-01T18:02:15.041Z,1.17
2019-06-01T18:04:45.079Z,1.67
2019-06-01T18:07:15.164Z,1.50
2019-06-01T18:09:45.185Z,1.20
2019-06-01T18:12:15.308Z,5.30
2019-06-01T18:14:45.320Z,4.10
2019-06-01T18:17:15.366Z,2.97
2019-06-01T18:19:45.458Z,2.20
2019-06-01T18:22:15.434Z,1.97
2019-06-01T18:24:45.523Z,1.80
2019-06-01T18:27:15.577Z,2.17
2019-06-01T18:29:48.672Z,2.30
2019-06-01T18:32:17.398Z,1.93
2019-06-01T18:34:47.479Z,1.93
2019-06-01T18:37:17.518Z,1.50
2019-06-01T18:39:48.268Z,2.20
2019-06-01T18:42:21.336Z,1.80
2019-06-01T18:44:51.349Z,2.07
2019-06-01T18:47:31.811Z,1.90
2019-06-01T18:49:53.304Z,1.90
2019-06-01T18:52:23.289Z,1.80
2019-06-01T18:54:53.372Z,2.03
2019-06-01T18:57:23.455Z,1.77
2019-06-01T18:59:53.544Z,1.87
2019-06-01T19:02:23.532Z,1.70
2019-06-01T19:04:53.549Z,1.60
2019-06-01T19:07:23.534Z,1.80
2019-06-01T19:09:53.620Z,2.03
2019-06-01T19:12:24.528Z,2.73
2019-06-01T19:14:54.993Z,2.40
2019-06-01T19:17:24.998Z,2.50
2019-06-01T19:19:54.985Z,2.40
2019-06-01T19:22:25.062Z,2.60
2019-06-01T19:24:55.052Z,2.50
2019-06-01T19:27:25.054Z,2.10
2019-06-01T19:29:55.031Z,2.20
2019-06-01T19:32:25.047Z,2.17
2019-06-01T19:34:55.436Z,2.50
2019-06-01T19:37:26.917Z,2.00
2019-06-01T19:39:57.107Z,2.50
2019-06-01T19:42:27.101Z,2.30
2019-06-01T19:44:57.111Z,2.40
2019-06-01T19:47:27.092Z,2.30
2019-06-01T19:49:57.105Z,2.60
2019-06-01T19:52:27.155Z,2.50
2019-06-01T19:54:57.175Z,2.30
2019-06-01T19:57:27.082Z,2.50
2019-06-01T19:59:57.035Z,2.57
2019-06-01T20:02:33.787Z,2.20
2019-06-01T20:04:58.798Z,2.80
2019-06-01T20:07:28.850Z,2.57
2019-06-01T20:09:58.859Z,2.63
2019-06-01T20:12:28.844Z,2.30
2019-06-01T20:14:58.826Z,2.67
2019-06-01T20:17:28.940Z,2.43
2019-06-01T20:19:58.910Z,3.10
2019-06-01T20:22:28.907Z,3.30
2019-06-01T20:24:58.827Z,3.30
2019-06-01T20:27:28.909Z,3.60
2019-06-01T20:29:58.952Z,3.27
2019-06-01T20:32:29.044Z,4.60
2019-06-01T20:34:59.085Z,4.10
2019-06-01T20:37:29.097Z,4.50
2019-06-01T20:39:59.073Z,4.50
2019-06-01T20:42:32.433Z,4.50
2019-06-01T20:45:00.847Z,4.90
2019-06-01T20:47:32.751Z,5.50
2019-06-01T20:50:03.741Z,6.00
2019-06-01T20:52:33.828Z,4.87
2019-06-01T20:55:06.245Z,5.20
2019-06-01T20:57:36.301Z,5.27
2019-06-01T21:00:10.804Z,5.70
2019-06-01T21:02:41.950Z,4.33
2019-06-01T21:05:13.747Z,5.47
2019-06-01T21:07:43.971Z,5.20
2019-06-01T21:10:16.183Z,5.17
2019-06-01T21:12:46.387Z,5.10
2019-06-01T21:15:17.386Z,5.20
2019-06-01T21:17:50.150Z,5.20
2019-06-01T21:20:26.872Z,4.87
2019-06-01T21:22:52.566Z,5.17
2019-06-01T21:25:22.915Z,5.03
2019-06-01T21:27:53.223Z,5.40
2019-06-01T21:30:24.647Z,5.37
2019-06-01T21:32:54.923Z,5.30
2019-06-01T21:35:25.563Z,4.93
2019-06-01T21:37:55.715Z,5.13
2019-06-01T21:40:25.824Z,5.40
2019-06-01T21:43:03.089Z,4.30
2019-06-01T21:45:27.661Z,4.77
2019-06-01T21:47:57.648Z,5.00
2019-06-01T21:50:27.664Z,4.50
2019-06-01T21:52:57.660Z,5.70
2019-06-01T21:55:27.736Z,5.13
2019-06-01T21:57:57.718Z,4.73
2019-06-01T22:00:33.830Z,5.03
2019-06-01T22:03:07.405Z,4.87
2019-06-01T22:05:37.702Z,5.27
2019-06-01T22:08:07.681Z,4.70
2019-06-01T22:10:37.696Z,4.70
2019-06-01T22:13:18.211Z,5.07
2019-06-01T22:15:39.384Z,4.10
2019-06-01T22:18:09.365Z,4.20
2019-06-01T22:20:39.376Z,4.47
2019-06-01T22:23:11.828Z,4.67
2019-06-01T22:25:41.160Z,4.73
2019-06-01T22:28:11.243Z,4.83
2019-06-01T22:30:42.213Z,4.87
2019-06-01T22:33:12.230Z,3.97
2019-06-01T22:35:42.245Z,3.60
2019-06-01T22:38:12.224Z,3.60
2019-06-01T22:40:42.257Z,4.30
2019-06-01T22:43:12.250Z,4.67
2019-06-01T22:45:42.271Z,4.10
2019-06-01T22:48:12.252Z,4.00
2019-06-01T22:50:42.366Z,4.13
2019-06-01T22:53:12.344Z,4.40
2019-06-01T22:55:42.355Z,3.73
2019-06-01T22:58:12.406Z,3.97
2019-06-01T23:00:42.430Z,4.10
2019-06-01T23:03:12.413Z,4.30
2019-06-01T23:05:42.492Z,4.50
2019-06-01T23:08:12.577Z,3.80
2019-06-01T23:10:42.554Z,3.90
2019-06-01T23:13:12.642Z,4.03
2019-06-01T23:15:42.652Z,4.20
2019-06-01T23:18:12.642Z,4.10
2019-06-01T23:20:42.695Z,4.10
2019-06-01T23:23:13.991Z,3.77
2019-06-01T23:25:44.038Z,4.07
2019-06-01T23:28:14.045Z,3.33
2019-06-01T23:30:45.394Z,4.27
2019-06-01T23:33:15.406Z,3.93
2019-06-01T23:35:45.383Z,4.17
2019-06-01T23:38:15.395Z,3.20
2019-06-01T23:40:45.379Z,3.70
2019-06-01T23:43:15.384Z,3.33
2019-06-01T23:45:45.367Z,2.97
2019-06-01T23:48:15.404Z,3.60
2019-06-01T23:50:45.426Z,3.70
2019-06-01T23:53:15.452Z,3.50
2019-06-01T23:55:45.430Z,3.70
2019-06-01T23:58:15.442Z,3.30
